createdAt,value
2023-05-12T00:01:31.397Z,53.48
2023-05-12T00:03:58.129Z,53.29
2023-05-12T00:06:24.840Z,53.12
2023-05-12T00:08:51.420Z,53.29
2023-05-12T00:11:18.097Z,53.64
2023-05-12T00:13:44.771Z,53.61
2023-05-12T00:16:11.626Z,53.60
2023-05-12T00:18:38.262Z,53.55
2023-05-12T00:21:04.822Z,53.46
2023-05-12T00:23:31.380Z,53.30
2023-05-12T00:25:57.896Z,53.26
2023-05-12T00:28:24.433Z,53.34
2023-05-12T00:30:51.206Z,53.80
2023-05-12T00:33:17.827Z,53.61
2023-05-12T00:35:47.320Z,53.75
2023-05-12T00:38:13.933Z,53.00
2023-05-12T00:40:41.217Z,53.21
2023-05-12T00:43:08.763Z,52.65
2023-05-12T00:45:35.857Z,53.09
2023-05-12T00:48:04.290Z,53.12
2023-05-12T00:50:31.498Z,53.43
2023-05-12T00:53:00.708Z,52.99
2023-05-12T00:55:29.060Z,52.97
2023-05-12T00:57:56.231Z,53.14
2023-05-12T01:00:23.048Z,53.35
2023-05-12T01:02:49.829Z,53.62
2023-05-12T01:05:16.558Z,53.39
2023-05-12T01:07:46.499Z,53.44
2023-05-12T01:10:18.736Z,53.07
2023-05-12T01:12:45.759Z,52.90
2023-05-12T01:15:12.923Z,53.20
2023-05-12T01:17:46.897Z,53.06
2023-05-12T01:20:16.494Z,52.92
2023-05-12T01:22:43.652Z,53.13
2023-05-12T01:25:12.110Z,52.54
2023-05-12T01:27:40.441Z,53.40
2023-05-12T01:30:09.484Z,53.03
2023-05-12T01:32:38.296Z,52.98
2023-05-12T01:35:06.485Z,53.01
2023-05-12T01:37:34.431Z,52.93
2023-05-12T01:40:03.966Z,52.95
2023-05-12T01:42:30.541Z,52.86
2023-05-12T01:44:57.895Z,52.97
2023-05-12T01:47:25.627Z,53.28
2023-05-12T01:49:58.830Z,53.26
2023-05-12T01:52:25.972Z,53.08
2023-05-12T01:54:52.518Z,52.91
2023-05-12T01:57:19.284Z,53.02
2023-05-12T01:59:46.293Z,53.11
2023-05-12T02:02:12.948Z,52.78
2023-05-12T02:04:39.588Z,52.85
2023-05-12T02:07:06.181Z,53.20
2023-05-12T02:09:33.145Z,53.25
2023-05-12T02:12:02.588Z,53.69
2023-05-12T02:14:29.208Z,53.61
2023-05-12T02:16:56.349Z,53.61
2023-05-12T02:19:24.625Z,53.37
2023-05-12T02:21:51.249Z,52.74
2023-05-12T02:24:17.815Z,53.05
2023-05-12T02:26:44.970Z,53.49
2023-05-12T02:29:13.111Z,52.88
2023-05-12T02:31:39.886Z,53.25
2023-05-12T02:34:15.881Z,53.06
2023-05-12T02:36:42.479Z,52.76
2023-05-12T02:39:09.048Z,53.32
2023-05-12T02:41:35.939Z,53.36
2023-05-12T02:44:02.431Z,53.10
2023-05-12T02:46:28.944Z,53.29
2023-05-12T02:48:55.923Z,53.34
2023-05-12T02:51:22.942Z,53.15
2023-05-12T02:53:49.540Z,53.34
2023-05-12T02:56:17.608Z,53.23
2023-05-12T02:58:44.122Z,53.13
2023-05-12T03:01:11.857Z,52.97
2023-05-12T03:03:40.812Z,53.50
2023-05-12T03:06:07.996Z,53.16
2023-05-12T03:08:34.852Z,53.44
2023-05-12T03:11:01.920Z,53.07
2023-05-12T03:13:28.811Z,53.45
2023-05-12T03:15:55.800Z,53.13
2023-05-12T03:18:22.722Z,53.24
2023-05-12T03:20:50.182Z,53.24
2023-05-12T03:23:16.864Z,53.09
2023-05-12T03:25:43.986Z,52.95
2023-05-12T03:28:11.347Z,52.37
2023-05-12T03:30:38.093Z,53.19
2023-05-12T03:33:05.188Z,52.97
2023-05-12T03:35:32.222Z,53.38
2023-05-12T03:38:01.495Z,53.26
2023-05-12T03:40:28.424Z,53.04
2023-05-12T03:42:54.975Z,53.25
2023-05-12T03:45:21.664Z,53.21
2023-05-12T03:47:48.627Z,52.82
2023-05-12T03:50:15.500Z,52.84
2023-05-12T03:52:42.138Z,52.94
2023-05-12T03:55:09.188Z,53.03
2023-05-12T03:57:36.644Z,52.83
2023-05-12T04:00:04.932Z,53.27
2023-05-12T04:02:39.382Z,52.87
2023-05-12T04:05:08.557Z,53.57
2023-05-12T04:07:35.732Z,53.47
2023-05-12T04:10:02.755Z,53.17
2023-05-12T04:12:29.334Z,52.73
2023-05-12T04:14:56.193Z,53.24
2023-05-12T04:17:25.095Z,53.41
2023-05-12T04:19:53.338Z,53.25
2023-05-12T04:22:19.933Z,53.32
2023-05-12T04:24:46.498Z,53.47
2023-05-12T04:27:13.280Z,52.98
2023-05-12T04:29:39.907Z,53.77
2023-05-12T04:32:06.817Z,53.78
2023-05-12T04:34:34.605Z,53.93
2023-05-12T04:37:01.215Z,53.42
2023-05-12T04:39:28.037Z,53.55
2023-05-12T04:41:54.733Z,53.95
2023-05-12T04:44:22.266Z,53.91
2023-05-12T04:46:53.333Z,54.33
2023-05-12T04:49:20.141Z,54.20
2023-05-12T04:51:47.795Z,54.59
2023-05-12T04:54:14.432Z,54.45
2023-05-12T04:56:41.491Z,54.33
2023-05-12T04:59:08.076Z,54.34
2023-05-12T05:01:34.795Z,54.31
2023-05-12T05:04:01.467Z,54.19
2023-05-12T05:06:28.323Z,54.49
2023-05-12T05:08:55.803Z,54.44
2023-05-12T05:11:22.900Z,54.37
2023-05-12T05:13:49.511Z,53.68
2023-05-12T05:16:17.588Z,54.06
2023-05-12T05:18:46.742Z,54.24
2023-05-12T05:21:16.533Z,54.43
2023-05-12T05:23:43.453Z,53.99
2023-05-12T05:26:10.589Z,53.79
2023-05-12T05:28:39.873Z,53.85
2023-05-12T05:31:07.394Z,53.69
2023-05-12T05:33:34.604Z,53.48
2023-05-12T05:36:03.320Z,53.58
2023-05-12T05:38:30.683Z,53.04
2023-05-12T05:40:57.268Z,53.49
2023-05-12T05:43:25.924Z,53.97
2023-05-12T05:45:53.114Z,54.41
2023-05-12T05:48:21.744Z,54.94
2023-05-12T05:50:48.863Z,54.69
2023-05-12T05:53:16.210Z,54.71
2023-05-12T05:55:43.275Z,54.90
2023-05-12T05:58:10.492Z,54.70
2023-05-12T06:00:37.271Z,54.64
2023-05-12T06:03:04.488Z,54.46
2023-05-12T06:05:31.071Z,54.03
2023-05-12T06:07:57.733Z,54.59
2023-05-12T06:10:25.492Z,54.29
2023-05-12T06:12:52.050Z,53.55
2023-05-12T06:15:20.937Z,53.64
2023-05-12T06:17:49.516Z,53.63
2023-05-12T06:20:16.171Z,53.47
2023-05-12T06:22:44.990Z,53.55
2023-05-12T06:25:11.769Z,53.98
2023-05-12T06:27:38.418Z,53.52
2023-05-12T06:30:06.399Z,53.56
2023-05-12T06:32:33.493Z,53.52
2023-05-12T06:35:00.320Z,54.11
2023-05-12T06:37:27.461Z,54.12
2023-05-12T06:39:54.133Z,53.58
2023-05-12T06:42:20.673Z,54.16
2023-05-12T06:44:51.927Z,54.06
2023-05-12T06:47:20.683Z,54.42
2023-05-12T06:49:49.945Z,54.07
2023-05-12T06:52:17.029Z,54.47
2023-05-12T06:54:43.529Z,53.96
2023-05-12T06:57:10.065Z,53.46
2023-05-12T06:59:36.636Z,54.16
2023-05-12T07:02:03.294Z,54.19
2023-05-12T07:04:29.870Z,53.85
2023-05-12T07:06:56.736Z,53.61
2023-05-12T07:09:23.278Z,53.36
2023-05-12T07:11:49.884Z,53.56
2023-05-12T07:14:16.520Z,53.80
2023-05-12T07:16:43.177Z,53.81
2023-05-12T07:19:09.846Z,53.44
2023-05-12T07:21:37.100Z,53.37
2023-05-12T07:24:03.881Z,52.93
2023-05-12T07:26:30.471Z,52.50
2023-05-12T07:28:57.059Z,52.92
2023-05-12T07:31:23.640Z,52.98
2023-05-12T07:33:50.237Z,53.16
2023-05-12T07:36:16.744Z,52.88
2023-05-12T07:38:43.300Z,52.88
2023-05-12T07:41:09.873Z,52.92
2023-05-12T07:43:36.393Z,52.86
2023-05-12T07:46:02.907Z,53.06
2023-05-12T07:48:29.892Z,52.88
2023-05-12T07:50:57.142Z,53.02
2023-05-12T07:53:23.697Z,52.97
2023-05-12T07:55:50.240Z,52.43
2023-05-12T07:58:16.766Z,52.19
2023-05-12T08:00:44.653Z,52.15
2023-05-12T08:03:11.256Z,52.29
2023-05-12T08:05:37.824Z,52.38
2023-05-12T08:08:04.403Z,52.19
2023-05-12T08:10:32.581Z,52.18
2023-05-12T08:12:59.192Z,51.96
2023-05-12T08:15:25.717Z,52.35
2023-05-12T08:17:52.322Z,51.28
2023-05-12T08:20:18.855Z,51.52
2023-05-12T08:22:47.722Z,51.36
2023-05-12T08:25:14.641Z,51.42
2023-05-12T08:27:41.384Z,51.20
2023-05-12T08:30:09.148Z,50.88
2023-05-12T08:32:36.293Z,51.55
2023-05-12T08:35:03.215Z,51.33
2023-05-12T08:37:30.936Z,51.67
2023-05-12T08:39:58.424Z,51.47
2023-05-12T08:42:40.456Z,51.33
2023-05-12T08:45:08.158Z,51.24
2023-05-12T08:47:35.849Z,51.63
2023-05-12T08:50:04.226Z,50.90
2023-05-12T08:52:35.632Z,50.61
2023-05-12T08:55:04.241Z,50.96
2023-05-12T08:57:31.259Z,51.06
2023-05-12T08:59:59.444Z,51.43
2023-05-12T09:02:37.592Z,51.70
2023-05-12T09:05:08.725Z,51.97
2023-05-12T09:07:38.811Z,51.73
2023-05-12T09:10:19.608Z,51.69
2023-05-12T09:12:55.694Z,51.50
2023-05-12T09:15:33.773Z,51.68
2023-05-12T09:18:00.381Z,52.03
2023-05-12T09:20:31.455Z,52.07
2023-05-12T09:23:00.058Z,52.00
2023-05-12T09:25:26.628Z,51.82
2023-05-12T09:27:58.966Z,51.73
2023-05-12T09:30:30.855Z,51.68
2023-05-12T09:33:08.168Z,52.03
2023-05-12T09:35:53.116Z,51.58
2023-05-12T09:38:19.665Z,51.70
2023-05-12T09:40:46.211Z,51.94
2023-05-12T09:43:15.377Z,52.11
2023-05-12T09:45:43.979Z,52.10
2023-05-12T09:48:12.417Z,52.56
2023-05-12T09:50:48.235Z,51.85
2023-05-12T09:53:17.287Z,52.17
2023-05-12T09:55:45.107Z,52.00
2023-05-12T09:58:11.650Z,51.95
2023-05-12T10:00:58.658Z,52.21
2023-05-12T10:03:30.235Z,52.32
2023-05-12T10:06:02.610Z,51.55
2023-05-12T10:08:42.171Z,51.96
2023-05-12T10:11:09.591Z,51.88
2023-05-12T10:13:36.541Z,51.76
2023-05-12T10:16:03.538Z,52.07
2023-05-12T10:18:33.142Z,51.61
2023-05-12T10:21:00.902Z,51.02
2023-05-12T10:23:27.966Z,50.73
2023-05-12T10:26:02.416Z,50.36
2023-05-12T10:28:29.748Z,50.29
2023-05-12T10:31:00.241Z,50.54
2023-05-12T10:33:27.598Z,50.66
2023-05-12T10:35:54.356Z,50.32
2023-05-12T10:38:21.045Z,50.55
2023-05-12T10:41:03.612Z,50.81
2023-05-12T10:43:42.770Z,50.91
2023-05-12T10:46:21.006Z,50.16
2023-05-12T10:49:05.754Z,50.09
2023-05-12T10:51:44.259Z,50.05
2023-05-12T10:54:12.725Z,50.75
2023-05-12T10:56:39.429Z,50.73
2023-05-12T10:59:20.250Z,50.60
2023-05-12T11:01:58.753Z,50.08
2023-05-12T11:04:41.667Z,50.40
2023-05-12T11:07:14.361Z,50.35
2023-05-12T11:09:52.328Z,50.84
2023-05-12T11:12:26.311Z,50.90
2023-05-12T11:14:52.997Z,50.86
2023-05-12T11:17:19.526Z,50.60
2023-05-12T11:19:50.114Z,50.50
2023-05-12T11:22:19.784Z,50.04
2023-05-12T11:24:47.193Z,50.09
2023-05-12T11:27:16.350Z,49.32
2023-05-12T11:29:45.055Z,48.62
2023-05-12T11:32:14.952Z,48.54
2023-05-12T11:34:41.521Z,48.13
2023-05-12T11:37:08.156Z,48.03
2023-05-12T11:39:36.164Z,47.33
2023-05-12T11:42:12.104Z,47.45
2023-05-12T11:44:49.498Z,46.64
2023-05-12T11:47:20.032Z,45.91
2023-05-12T11:49:50.883Z,44.24
2023-05-12T11:52:19.649Z,44.97
2023-05-12T11:54:57.756Z,43.60
2023-05-12T11:57:36.109Z,43.45
2023-05-12T12:00:09.661Z,44.35
2023-05-12T12:08:28.032Z,43.26
2023-05-12T12:10:54.876Z,43.79
2023-05-12T12:13:25.879Z,43.99
2023-05-12T12:15:52.925Z,44.91
2023-05-12T12:18:19.615Z,45.13
2023-05-12T12:20:49.189Z,45.22
2023-05-12T12:23:15.831Z,44.72
2023-05-12T12:25:43.704Z,45.55
2023-05-12T12:28:10.342Z,45.57
2023-05-12T12:30:37.327Z,45.13
2023-05-12T12:33:03.947Z,45.37
2023-05-12T12:35:30.852Z,45.21
2023-05-12T12:37:58.329Z,44.32
2023-05-12T12:40:24.896Z,44.91
2023-05-12T12:42:51.424Z,44.30
2023-05-12T12:45:20.294Z,44.84
2023-05-12T12:47:47.440Z,45.13
2023-05-12T12:50:14.080Z,45.71
2023-05-12T12:52:40.662Z,45.63
2023-05-12T12:55:07.976Z,45.94
2023-05-12T12:57:34.982Z,46.24
2023-05-12T13:00:05.401Z,46.21
2023-05-12T13:02:33.063Z,46.09
2023-05-12T13:05:04.256Z,46.18
2023-05-12T13:07:31.066Z,45.35
2023-05-12T13:09:57.855Z,45.06
2023-05-12T13:12:25.118Z,45.40
2023-05-12T13:14:51.663Z,44.60
2023-05-12T13:17:19.043Z,43.68
2023-05-12T13:19:47.015Z,43.30
2023-05-12T13:22:13.968Z,43.48
2023-05-12T13:24:45.644Z,43.77
2023-05-12T13:27:22.574Z,44.26
2023-05-12T13:29:50.129Z,44.28
2023-05-12T13:32:17.099Z,44.51
2023-05-12T13:34:48.927Z,44.22
2023-05-12T13:37:15.788Z,44.32
2023-05-12T13:39:42.469Z,43.99
2023-05-12T13:42:09.161Z,43.11
2023-05-12T13:44:35.870Z,42.42
2023-05-12T13:47:02.448Z,42.79
2023-05-12T13:49:29.240Z,43.10
2023-05-12T13:51:55.767Z,43.21
2023-05-12T13:54:23.022Z,43.09
2023-05-12T13:56:49.553Z,42.88
2023-05-12T13:59:16.205Z,43.19
2023-05-12T14:01:44.102Z,43.81
2023-05-12T14:04:11.715Z,43.86
2023-05-12T14:06:38.467Z,43.90
2023-05-12T14:09:07.886Z,43.82
2023-05-12T14:11:35.214Z,44.46
2023-05-12T14:14:03.407Z,44.28
2023-05-12T14:16:30.381Z,44.11
2023-05-12T14:18:57.102Z,43.00
2023-05-12T14:21:23.679Z,44.13
2023-05-12T14:23:51.312Z,44.40
2023-05-12T14:26:19.194Z,43.93
2023-05-12T14:28:46.112Z,43.67
2023-05-12T14:31:12.674Z,43.94
2023-05-12T14:33:39.313Z,43.97
2023-05-12T14:36:08.410Z,43.19
2023-05-12T14:38:36.052Z,43.01
2023-05-12T14:41:02.579Z,44.12
2023-05-12T14:43:29.331Z,44.19
2023-05-12T14:45:56.103Z,44.41
2023-05-12T14:48:26.235Z,44.26
2023-05-12T14:50:54.186Z,44.60
2023-05-12T14:53:22.156Z,44.51
2023-05-12T14:55:49.585Z,44.36
2023-05-12T14:58:17.780Z,44.43
2023-05-12T15:00:45.376Z,44.67
2023-05-12T15:03:12.160Z,45.05
2023-05-12T15:05:56.857Z,44.92
2023-05-12T15:08:27.013Z,45.53
2023-05-12T15:10:53.597Z,45.77
2023-05-12T15:13:22.880Z,46.01
2023-05-12T15:15:52.931Z,45.70
2023-05-12T15:18:22.871Z,45.85
2023-05-12T15:20:52.307Z,46.43
2023-05-12T15:23:19.300Z,46.43
2023-05-12T15:25:46.040Z,46.90
2023-05-12T15:28:12.803Z,46.60
2023-05-12T15:30:39.571Z,46.58
2023-05-12T15:33:06.553Z,46.40
2023-05-12T15:35:34.407Z,46.66
2023-05-12T15:38:03.004Z,46.60
2023-05-12T15:40:30.950Z,46.07
2023-05-12T15:42:58.628Z,46.33
2023-05-12T15:45:25.282Z,46.17
2023-05-12T15:47:52.025Z,46.85
2023-05-12T15:50:22.309Z,45.96
2023-05-12T15:52:49.556Z,46.71
2023-05-12T15:55:16.769Z,46.60
2023-05-12T15:57:43.339Z,46.28
2023-05-12T16:00:10.561Z,46.03
2023-05-12T16:02:40.540Z,45.71
2023-05-12T16:05:07.388Z,45.93
2023-05-12T16:10:01.269Z,45.81
2023-05-12T16:12:27.819Z,45.94
